createdAt,value
2019-04-21T00:01:59.758Z,99.90
2019-04-21T00:06:26.976Z,99.90
2019-04-21T00:10:35.689Z,99.90
2019-04-21T00:14:26.188Z,99.90
2019-04-21T00:18:40.707Z,99.90
2019-04-21T00:22:52.072Z,99.90
2019-04-21T00:27:01.940Z,99.90
2019-04-21T00:31:08.478Z,99.90
2019-04-21T00:35:03.305Z,99.90
2019-04-21T00:39:32.627Z,99.90
2019-04-21T00:43:23.390Z,99.90
2019-04-21T00:47:35.858Z,99.90
2019-04-21T00:51:46.624Z,99.90
2019-04-21T00:59:55.740Z,99.90
2019-04-21T01:03:58.366Z,99.90
2019-04-21T01:07:57.941Z,99.90
2019-04-21T01:12:09.897Z,99.90
2019-04-21T01:16:14.746Z,99.90
2019-04-21T01:20:12.152Z,99.90
2019-04-21T01:24:06.557Z,99.90
2019-04-21T01:28:27.016Z,99.90
2019-04-21T01:32:39.040Z,99.90
2019-04-21T01:36:34.665Z,99.90
2019-04-21T01:41:02.474Z,99.90
2019-04-21T01:44:50.305Z,99.90
2019-04-21T01:48:47.337Z,99.90
2019-04-21T01:53:02.342Z,99.90
2019-04-21T01:57:10.409Z,99.90
2019-04-21T02:01:15.610Z,99.90
2019-04-21T02:05:34.529Z,99.90
2019-04-21T02:09:33.683Z,99.90
2019-04-21T02:13:46.868Z,99.90
2019-04-21T02:17:49.827Z,99.90
2019-04-21T02:21:44.874Z,99.90
2019-04-21T02:25:57.438Z,99.90
2019-04-21T02:30:14.671Z,99.90
2019-04-21T02:34:37.910Z,99.90
2019-04-21T02:38:34.288Z,99.90
2019-04-21T02:42:32.049Z,99.90
2019-04-21T02:46:38.439Z,99.90
2019-04-21T02:50:47.252Z,99.90
2019-04-21T02:55:01.226Z,99.90
2019-04-21T02:59:02.946Z,99.90
2019-04-21T03:11:28.949Z,99.90
2019-04-21T03:19:48.146Z,99.90
2019-04-21T03:24:05.408Z,99.90
2019-04-21T03:27:50.907Z,99.90
2019-04-21T03:44:14.470Z,99.90
2019-04-21T03:48:11.489Z,99.90
2019-04-21T03:52:20.073Z,99.90
2019-04-21T03:56:45.318Z,99.90
2019-04-21T04:00:44.897Z,99.90
2019-04-21T04:08:50.192Z,99.90
2019-04-21T04:12:54.619Z,99.90
2019-04-21T04:17:14.410Z,99.90
2019-04-21T04:21:06.055Z,99.90
2019-04-21T04:25:07.869Z,99.90
2019-04-21T04:33:20.284Z,99.90
2019-04-21T04:41:35.202Z,99.90
2019-04-21T04:45:40.919Z,99.90
2019-04-21T05:02:00.339Z,99.90
2019-04-21T05:06:37.551Z,99.90
2019-04-21T05:10:35.008Z,99.90
2019-04-21T05:14:29.818Z,99.90
2019-04-21T05:18:50.422Z,99.90
2019-04-21T05:22:35.534Z,99.90
2019-04-21T05:26:34.531Z,99.90
2019-04-21T05:31:06.254Z,99.90
2019-04-21T05:35:09.493Z,99.90
2019-04-21T05:39:24.545Z,99.90
2019-04-21T05:43:33.412Z,99.90
2019-04-21T05:47:48.628Z,99.90
2019-04-21T05:51:57.431Z,99.90
2019-04-21T05:56:12.549Z,99.90
2019-04-21T06:00:10.121Z,99.90
2019-04-21T06:04:34.792Z,99.90
2019-04-21T06:08:29.739Z,99.90
2019-04-21T06:12:29.545Z,99.90
2019-04-21T06:16:40.348Z,99.90
2019-04-21T06:20:40.653Z,99.40
2019-04-21T06:25:06.951Z,98.80
2019-04-21T06:29:03.945Z,98.90
2019-04-21T06:33:01.723Z,99.20
2019-04-21T06:37:34.912Z,98.80
2019-04-21T06:41:22.808Z,99.30
2019-04-21T06:45:32.175Z,98.40
2019-04-21T06:49:27.479Z,98.50
2019-04-21T06:53:37.607Z,98.30
2019-04-21T06:57:41.723Z,96.40
2019-04-21T07:02:08.760Z,97.90
2019-04-21T07:05:57.582Z,94.80
2019-04-21T07:09:57.432Z,91.80
2019-04-21T07:14:05.747Z,90.20
2019-04-21T07:18:09.266Z,85.00
2019-04-21T07:22:12.604Z,84.00
2019-04-21T07:26:19.196Z,86.50
2019-04-21T07:30:25.426Z,82.40
2019-04-21T07:34:33.344Z,82.80
2019-04-21T07:38:28.600Z,82.00
2019-04-21T07:42:32.827Z,78.50
2019-04-21T07:46:28.938Z,83.30
2019-04-21T07:50:57.775Z,79.20
2019-04-21T07:55:14.224Z,76.00
2019-04-21T07:59:04.780Z,76.50
2019-04-21T08:03:15.514Z,81.40
2019-04-21T08:07:21.811Z,78.00
2019-04-21T08:11:21.123Z,76.20
2019-04-21T08:15:29.123Z,77.40
2019-04-21T08:19:31.060Z,67.50
2019-04-21T08:23:40.247Z,74.30
2019-04-21T08:27:50.875Z,68.40
2019-04-21T08:31:56.530Z,61.20
2019-04-21T08:40:04.951Z,63.30
2019-04-21T08:44:01.996Z,64.90
2019-04-21T08:48:12.081Z,60.00
2019-04-21T08:52:26.016Z,55.90
2019-04-21T08:56:25.442Z,61.20
2019-04-21T09:00:36.837Z,57.40
2019-04-21T09:04:33.874Z,54.70
2019-04-21T09:08:46.290Z,54.50
2019-04-21T09:12:48.022Z,55.60
2019-04-21T09:16:52.868Z,55.20
2019-04-21T09:21:11.004Z,54.40
2019-04-21T09:25:05.909Z,53.00
2019-04-21T09:29:05.716Z,49.40
2019-04-21T09:32:58.649Z,50.00
2019-04-21T09:37:16.473Z,48.70
2019-04-21T09:41:15.924Z,47.80
2019-04-21T09:45:13.995Z,45.20
2019-04-21T09:49:22.464Z,44.50
2019-04-21T09:53:31.189Z,43.70
2019-04-21T09:57:40.725Z,47.10
2019-04-21T10:01:49.144Z,44.10
2019-04-21T10:05:39.338Z,40.80
2019-04-21T10:09:43.589Z,43.70
2019-04-21T10:13:48.616Z,45.00
2019-04-21T10:17:54.104Z,46.90
2019-04-21T10:21:59.484Z,41.70
2019-04-21T10:26:04.170Z,43.50
2019-04-21T10:30:12.134Z,42.80
2019-04-21T10:34:16.887Z,42.40
2019-04-21T10:38:32.747Z,40.70
2019-04-21T10:42:26.899Z,40.10
2019-04-21T10:46:30.827Z,37.00
2019-04-21T10:50:34.804Z,42.90
2019-04-21T10:55:02.501Z,39.60
2019-04-21T10:58:44.554Z,41.70
2019-04-21T11:02:59.024Z,43.70
2019-04-21T11:07:10.449Z,36.00
2019-04-21T11:11:10.055Z,38.50
2019-04-21T11:15:14.827Z,39.20
2019-04-21T11:19:19.938Z,36.20
2019-04-21T11:23:24.963Z,43.70
2019-04-21T11:27:28.832Z,43.90
2019-04-21T11:31:33.433Z,41.60
2019-04-21T11:35:37.443Z,35.60
2019-04-21T11:39:50.029Z,43.00
2019-04-21T11:43:46.350Z,38.10
2019-04-21T11:48:08.169Z,44.60
2019-04-21T11:52:13.156Z,40.20
2019-04-21T11:56:16.982Z,38.70
2019-04-21T12:00:21.537Z,39.90
2019-04-21T12:04:25.542Z,43.10
2019-04-21T12:08:36.222Z,40.20
2019-04-21T12:12:35.091Z,36.40
2019-04-21T12:16:39.163Z,38.30
2019-04-21T12:20:43.118Z,37.40
2019-04-21T12:24:47.110Z,34.20
2019-04-21T12:28:52.161Z,35.20
2019-04-21T12:33:00.163Z,44.20
2019-04-21T12:37:04.629Z,35.90
2019-04-21T12:41:08.687Z,35.00
2019-04-21T12:45:13.119Z,34.50
2019-04-21T12:49:17.898Z,35.00
2019-04-21T12:53:21.599Z,31.40
2019-04-21T12:57:25.475Z,37.50
2019-04-21T13:01:29.123Z,37.00
2019-04-21T13:05:33.779Z,41.80
2019-04-21T13:09:37.539Z,37.80
2019-04-21T13:13:42.061Z,35.20
2019-04-21T13:17:47.313Z,29.80
2019-04-21T13:21:52.048Z,32.40
2019-04-21T13:25:56.067Z,30.00
2019-04-21T13:30:00.056Z,29.40
2019-04-21T13:34:06.049Z,33.00
2019-04-21T13:38:19.938Z,30.00
2019-04-21T13:42:24.533Z,31.90
2019-04-21T13:46:22.820Z,31.90
2019-04-21T13:50:26.386Z,30.30
2019-04-21T13:54:29.984Z,32.80
2019-04-21T13:58:34.615Z,28.70
2019-04-21T14:02:38.671Z,35.10
2019-04-21T14:06:42.529Z,29.40
2019-04-21T14:10:47.313Z,29.30
2019-04-21T14:14:52.473Z,31.20
2019-04-21T14:18:57.185Z,28.60
2019-04-21T14:23:13.557Z,35.60
2019-04-21T14:27:06.355Z,28.30
2019-04-21T14:31:10.508Z,29.40
2019-04-21T14:35:14.765Z,31.80
2019-04-21T14:39:18.549Z,33.30
2019-04-21T14:43:22.261Z,29.90
2019-04-21T14:47:44.306Z,32.30
2019-04-21T14:51:49.706Z,30.80
2019-04-21T14:55:53.311Z,29.60
2019-04-21T14:59:57.322Z,31.60
2019-04-21T15:04:01.637Z,29.90
2019-04-21T15:08:05.256Z,29.80
2019-04-21T15:12:10.039Z,28.20
2019-04-21T15:16:14.956Z,33.30
2019-04-21T15:20:20.183Z,30.10
2019-04-21T15:24:24.352Z,32.90
2019-04-21T15:28:30.682Z,29.70
2019-04-21T15:32:34.528Z,34.10
2019-04-21T15:36:38.206Z,35.10
2019-04-21T15:40:50.561Z,31.10
2019-04-21T15:44:48.376Z,33.80
2019-04-21T15:48:52.989Z,33.40
2019-04-21T15:52:58.199Z,32.50
2019-04-21T15:57:09.185Z,36.30
2019-04-21T16:01:14.532Z,33.50
2019-04-21T16:05:19.123Z,35.10
2019-04-21T16:09:25.934Z,37.10
2019-04-21T16:13:27.875Z,31.30
2019-04-21T16:17:32.828Z,32.00
2019-04-21T16:21:40.441Z,31.70
2019-04-21T16:25:41.827Z,33.30
2019-04-21T16:29:45.763Z,34.80
2019-04-21T16:33:49.556Z,37.30
2019-04-21T16:37:55.752Z,37.60
2019-04-21T16:41:58.429Z,33.90
2019-04-21T16:46:02.013Z,36.20
2019-04-21T16:50:07.780Z,36.90
2019-04-21T16:54:13.650Z,41.10
2019-04-21T16:58:28.347Z,35.80
2019-04-21T17:02:30.509Z,38.80
2019-04-21T17:06:35.295Z,39.80
2019-04-21T17:10:40.333Z,39.30
2019-04-21T17:14:57.108Z,43.00
2019-04-21T17:18:59.534Z,43.30
2019-04-21T17:22:55.613Z,43.20
2019-04-21T17:26:59.605Z,43.70
2019-04-21T17:31:04.570Z,45.90
2019-04-21T17:35:10.157Z,46.00
2019-04-21T17:39:13.771Z,45.00
2019-04-21T17:43:18.419Z,48.90
2019-04-21T17:47:33.750Z,50.40
2019-04-21T17:51:56.584Z,60.10
2019-04-21T17:56:19.608Z,74.60
2019-04-21T18:00:24.029Z,81.00
2019-04-21T18:04:24.320Z,89.70
2019-04-21T18:08:32.521Z,91.00
2019-04-21T18:12:33.396Z,91.70
2019-04-21T18:16:32.498Z,93.20
2019-04-21T18:20:30.091Z,94.60
2019-04-21T18:24:45.941Z,95.40
2019-04-21T18:28:40.936Z,94.60
2019-04-21T18:32:44.595Z,95.10
2019-04-21T18:36:52.126Z,95.90
2019-04-21T18:40:56.474Z,98.20
2019-04-21T18:49:11.410Z,99.90
2019-04-21T18:53:32.025Z,99.90
2019-04-21T18:57:30.582Z,99.90
2019-04-21T19:01:30.714Z,99.90
2019-04-21T19:05:32.411Z,99.90
2019-04-21T19:18:32.489Z,99.90
2019-04-21T19:22:15.781Z,99.90
2019-04-21T19:26:34.014Z,99.90
2019-04-21T19:34:21.069Z,99.90
2019-04-21T19:38:30.579Z,99.90
2019-04-21T19:42:35.430Z,99.90
2019-04-21T19:46:44.633Z,99.90
2019-04-21T19:50:50.527Z,99.90
2019-04-21T19:54:44.445Z,99.90
2019-04-21T19:58:47.249Z,99.90
2019-04-21T20:02:50.429Z,99.90
2019-04-21T20:07:02.851Z,99.90
2019-04-21T20:11:14.610Z,99.90
2019-04-21T20:15:31.774Z,99.90
2019-04-21T20:19:15.207Z,99.90
2019-04-21T20:23:22.758Z,99.90
2019-04-21T20:27:36.290Z,99.90
2019-04-21T20:31:48.710Z,99.90
2019-04-21T20:39:47.326Z,99.90
2019-04-21T20:44:02.478Z,99.90
2019-04-21T20:47:53.915Z,99.90
2019-04-21T20:52:18.855Z,99.90
2019-04-21T20:56:11.175Z,99.90
2019-04-21T21:00:32.310Z,99.90
2019-04-21T21:04:27.271Z,99.90
2019-04-21T21:08:35.498Z,99.90
2019-04-21T21:12:52.730Z,99.90
2019-04-21T21:16:50.352Z,99.90
2019-04-21T21:20:53.983Z,99.90
2019-04-21T21:24:56.852Z,99.90
2019-04-21T21:28:56.346Z,99.90
2019-04-21T21:33:11.418Z,99.90
2019-04-21T21:37:21.578Z,99.90
2019-04-21T21:41:13.759Z,99.90
2019-04-21T21:45:13.819Z,99.90
2019-04-21T21:49:28.338Z,99.90
2019-04-21T21:53:23.012Z,99.90
2019-04-21T21:57:24.503Z,99.90
2019-04-21T22:01:35.784Z,99.90
2019-04-21T22:05:45.525Z,99.90
2019-04-21T22:09:39.962Z,99.90
2019-04-21T22:13:53.290Z,99.90
2019-04-21T22:18:07.382Z,99.90
2019-04-21T22:22:13.939Z,99.90
2019-04-21T22:25:59.334Z,99.90
2019-04-21T22:30:05.651Z,99.90
2019-04-21T22:34:11.854Z,99.90
2019-04-21T22:38:28.642Z,99.90
2019-04-21T22:42:25.559Z,99.90
2019-04-21T22:46:24.414Z,99.90
2019-04-21T22:50:31.084Z,99.90
2019-04-21T22:54:40.817Z,99.90
2019-04-21T22:58:44.032Z,99.90
2019-04-21T23:02:45.238Z,99.90
2019-04-21T23:06:59.273Z,99.90
2019-04-21T23:11:00.816Z,99.90
2019-04-21T23:15:06.551Z,99.90
2019-04-21T23:19:20.068Z,99.90
2019-04-21T23:23:28.617Z,99.90
2019-04-21T23:27:34.325Z,99.90
2019-04-21T23:31:39.875Z,99.90
2019-04-21T23:35:31.994Z,99.90
2019-04-21T23:39:33.785Z,99.90
2019-04-21T23:43:38.147Z,99.90
2019-04-21T23:47:53.096Z,99.90
2019-04-21T23:51:54.919Z,99.90
2019-04-21T23:55:53.006Z,99.90
2019-04-21T23:59:58.863Z,99.00
